Aviation Digital Data Service (ADDS)

Output produced by TAFs form (0753 UTC 25 March 2017)
found at http://www.aviationweather.gov/adds/tafs/
 
METAR text: ROYN 250700Z AUTO 01024KT 9999 OVC021 19/16 Q1016
Conditions at: ROYN (YONAGUNI AIRPORT, JP) observed 0700 UTC 25 March 2017
Temperature: 19.0°C (66°F)
Dewpoint: 16.0°C (61°F) [RH = 83%]
Pressure (altimeter): 30.00 inches Hg (1016.0 mb)
Winds: from the N (10 degrees) at 28 MPH (24 knots; 12.5 m/s)
Visibility: 6 or more miles (10+ km)
Ceiling: 2100 feet AGL
Clouds: overcast cloud deck at 2100 feet AGL
Weather: no significant weather observed at this time